Aeroporto :
LOGIN :

Iscrizione | Disclaimer

   EN    FR    IT 

 










Sommario :    VFR   VFR Marginale   IFR   IFR Intensivo   IFR Molto Intensivo
Visibilità : 
Base nubi : 
>= 8 km
>= 3000ft
5 / 8 km
1000 / 3000 ft
1500m / 5 km
500 / 1000 ft
800 / 1500m
200 / 500 ft
< 800m
< 200 ft
Simboli :   Temporali  Nebbia  Neve Forte  Precipitazioni Forti  Vento > 20 kt
SIGMETs :   Varie  Temporali  Ghiacco  Turbolenza  Onda orograficha  Ceneri Vulcaniche






- Altitudine del aeroporto : 308 ft
- Codice IATA : POZ


EPPO - Poznan-Lawica

ULTIMO METAR :
  • 050230Z 13013KT CAVOK 04/02 Q1000

METARs OBSOLETI :
  • 050200Z 13017KT CAVOK 04/02 Q0999
  • 050130Z 12015KT CAVOK 05/02 Q0999
  • 050100Z 13013KT CAVOK 04/02 Q1000
  • 050030Z 14016KT CAVOK 04/02 Q0999
  • 050000Z 13012KT CAVOK 04/02 Q1000

TAF TAF EPPO
Valido dal 05 a 00 ore il 06 a 00 ore UTC


042330Z 0500/0524 14012KT CAVOK
TEMPO 0500/0512 14016G26KT
TEMPO 0520/0524 14016G26KT



MetMap, La meteo Aeronautica in un colpo d'occhio ! - Copyright ORBIFLY Dicembre 2007 - Disclaimer

ORBIFLY MET'MAP TEAM :

Programmazione e sviluppo : Alexandra Zaïnal
Concezione : Baudouin d'Aumeries
Aiuto per la programmazione : Marc-Olivier Méhu
Supporto tecnico e logistico : Manuel Goepfert
Aiuto per la traduzione : Arnaldo La Scala

Contatto : metmap@orbifly.com




FONTI E CREDITI :

   NOAA